sensor_id;sensor_type;location;lat;lon;timestamp;temperature;humidity
56436;DHT22;42335;44.872;20.658;2022-10-16T00:00:28;358.40;2329.60
56436;DHT22;42335;44.872;20.658;2022-10-16T00:02:54;358.40;2329.60
56436;DHT22;42335;44.872;20.658;2022-10-16T00:05:20;358.50;2329.60
56436;DHT22;42335;44.872;20.658;2022-10-16T00:07:46;358.40;2329.60
56436;DHT22;42335;44.872;20.658;2022-10-16T00:10:12;358.40;2329.60
56436;DHT22;42335;44.872;20.658;2022-10-16T00:12:37;358.40;2329.60
56436;DHT22;42335;44.872;20.658;2022-10-16T00:15:04;358.40;2329.60
56436;DHT22;42335;44.872;20.658;2022-10-16T00:17:30;358.50;2329.60
56436;DHT22;42335;44.872;20.658;2022-10-16T00:19:55;358.50;2329.60
56436;DHT22;42335;44.872;20.658;2022-10-16T00:22:22;358.50;2329.60
56436;DHT22;42335;44.872;20.658;2022-10-16T00:24:47;358.50;2329.60
56436;DHT22;42335;44.872;20.658;2022-10-16T00:27:13;358.50;2329.60
56436;DHT22;42335;44.872;20.658;2022-10-16T00:29:39;358.50;2329.60
56436;DHT22;42335;44.872;20.658;2022-10-16T00:32:05;358.50;2329.60
56436;DHT22;42335;44.872;20.658;2022-10-16T00:34:30;358.60;2329.60
56436;DHT22;42335;44.872;20.658;2022-10-16T00:36:56;358.60;2329.60
56436;DHT22;42335;44.872;20.658;2022-10-16T00:39:22;358.70;2329.60
56436;DHT22;42335;44.872;20.658;2022-10-16T00:41:47;358.70;2329.60
56436;DHT22;42335;44.872;20.658;2022-10-16T00:44:51;358.70;2329.60
56436;DHT22;42335;44.872;20.658;2022-10-16T00:47:29;358.70;2329.60
56436;DHT22;42335;44.872;20.658;2022-10-16T00:50:12;358.70;2329.60
56436;DHT22;42335;44.872;20.658;2022-10-16T00:52:46;358.70;2329.60
56436;DHT22;42335;44.872;20.658;2022-10-16T00:55:13;358.70;2329.60
56436;DHT22;42335;44.872;20.658;2022-10-16T00:57:39;358.70;2329.60
56436;DHT22;42335;44.872;20.658;2022-10-16T01:00:08;358.70;2329.60
56436;DHT22;42335;44.872;20.658;2022-10-16T01:02:34;358.70;2329.60
56436;DHT22;42335;44.872;20.658;2022-10-16T01:04:59;358.70;2329.60
56436;DHT22;42335;44.872;20.658;2022-10-16T01:13:22;358.70;2329.60
56436;DHT22;42335;44.872;20.658;2022-10-16T01:16:02;358.70;2329.60
56436;DHT22;42335;44.872;20.658;2022-10-16T01:18:41;358.60;2329.60
56436;DHT22;42335;44.872;20.658;2022-10-16T01:21:23;358.70;2329.60
56436;DHT22;42335;44.872;20.658;2022-10-16T01:35:20;358.60;2329.60
56436;DHT22;42335;44.872;20.658;2022-10-16T01:37:57;358.60;2329.60
56436;DHT22;42335;44.872;20.658;2022-10-16T01:40:26;358.60;2329.60
56436;DHT22;42335;44.872;20.658;2022-10-16T01:43:01;358.50;2329.60
56436;DHT22;42335;44.872;20.658;2022-10-16T01:45:30;358.50;2329.60
56436;DHT22;42335;44.872;20.658;2022-10-16T01:47:59;358.50;2329.60
56436;DHT22;42335;44.872;20.658;2022-10-16T01:50:26;358.50;2329.60
56436;DHT22;42335;44.872;20.658;2022-10-16T01:52:53;358.60;2329.60
56436;DHT22;42335;44.872;20.658;2022-10-16T01:55:33;358.60;2329.60
56436;DHT22;42335;44.872;20.658;2022-10-16T01:58:02;358.60;2329.60
56436;DHT22;42335;44.872;20.658;2022-10-16T02:00:30;358.60;2329.60
56436;DHT22;42335;44.872;20.658;2022-10-16T02:02:57;358.60;2329.60
56436;DHT22;42335;44.872;20.658;2022-10-16T02:05:28;358.60;2329.60
56436;DHT22;42335;44.872;20.658;2022-10-16T02:07:56;358.60;2329.60
56436;DHT22;42335;44.872;20.658;2022-10-16T02:10:23;358.50;2329.60
56436;DHT22;42335;44.872;20.658;2022-10-16T02:15:36;358.50;2329.60
56436;DHT22;42335;44.872;20.658;2022-10-16T02:18:03;358.50;2329.60
56436;DHT22;42335;44.872;20.658;2022-10-16T02:20:35;358.40;2329.60
56436;DHT22;42335;44.872;20.658;2022-10-16T02:23:03;358.40;2329.60
56436;DHT22;42335;44.872;20.658;2022-10-16T02:25:35;333.70;2329.60
56436;DHT22;42335;44.872;20.658;2022-10-16T02:28:07;333.70;2329.60
56436;DHT22;42335;44.872;20.658;2022-10-16T02:33:00;333.60;2329.60
56436;DHT22;42335;44.872;20.658;2022-10-16T02:35:27;333.50;2329.60
56436;DHT22;42335;44.872;20.658;2022-10-16T02:37:54;333.50;2329.60
56436;DHT22;42335;44.872;20.658;2022-10-16T02:40:20;333.50;2329.60
56436;DHT22;42335;44.872;20.658;2022-10-16T02:42:53;333.40;2329.60
56436;DHT22;42335;44.872;20.658;2022-10-16T02:45:19;333.40;2329.60
56436;DHT22;42335;44.872;20.658;2022-10-16T02:47:45;333.40;2329.60
56436;DHT22;42335;44.872;20.658;2022-10-16T02:50:11;333.30;2329.60
56436;DHT22;42335;44.872;20.658;2022-10-16T02:52:36;333.30;2329.60
56436;DHT22;42335;44.872;20.658;2022-10-16T02:55:02;333.30;2329.60
56436;DHT22;42335;44.872;20.658;2022-10-16T02:57:28;333.30;2329.60
56436;DHT22;42335;44.872;20.658;2022-10-16T02:59:54;333.20;2329.60
56436;DHT22;42335;44.872;20.658;2022-10-16T03:02:20;333.20;2329.60
56436;DHT22;42335;44.872;20.658;2022-10-16T03:04:45;333.20;2329.60
56436;DHT22;42335;44.872;20.658;2022-10-16T03:07:11;333.20;2329.60
56436;DHT22;42335;44.872;20.658;2022-10-16T03:09:37;333.20;2329.60
56436;DHT22;42335;44.872;20.658;2022-10-16T03:12:03;333.20;2329.60
56436;DHT22;42335;44.872;20.658;2022-10-16T03:14:28;333.10;2329.60
56436;DHT22;42335;44.872;20.658;2022-10-16T03:16:54;333.20;2329.60
56436;DHT22;42335;44.872;20.658;2022-10-16T03:19:20;333.10;2329.60
56436;DHT22;42335;44.872;20.658;2022-10-16T03:21:46;333.10;2329.60
56436;DHT22;42335;44.872;20.658;2022-10-16T03:24:11;333.10;2329.60
56436;DHT22;42335;44.872;20.658;2022-10-16T03:26:37;333.00;2329.60
56436;DHT22;42335;44.872;20.658;2022-10-16T03:29:03;333.00;2329.60
56436;DHT22;42335;44.872;20.658;2022-10-16T03:31:32;333.00;2329.60
56436;DHT22;42335;44.872;20.658;2022-10-16T03:33:58;333.00;2329.60
56436;DHT22;42335;44.872;20.658;2022-10-16T03:36:23;332.90;2329.60
56436;DHT22;42335;44.872;20.658;2022-10-16T03:38:49;333.00;2329.60
56436;DHT22;42335;44.872;20.658;2022-10-16T03:41:15;332.90;2329.60
56436;DHT22;42335;44.872;20.658;2022-10-16T03:43:41;333.00;2329.60
56436;DHT22;42335;44.872;20.658;2022-10-16T03:46:06;332.90;2329.60
56436;DHT22;42335;44.872;20.658;2022-10-16T03:48:32;332.90;2329.60
56436;DHT22;42335;44.872;20.658;2022-10-16T03:50:58;332.90;2329.60
56436;DHT22;42335;44.872;20.658;2022-10-16T03:53:24;332.90;2329.60
56436;DHT22;42335;44.872;20.658;2022-10-16T03:55:50;332.90;2329.60
56436;DHT22;42335;44.872;20.658;2022-10-16T03:58:15;332.90;2329.60
56436;DHT22;42335;44.872;20.658;2022-10-16T04:00:45;332.90;2329.60
56436;DHT22;42335;44.872;20.658;2022-10-16T04:03:12;332.80;2329.60
56436;DHT22;42335;44.872;20.658;2022-10-16T04:05:39;332.80;2329.60
56436;DHT22;42335;44.872;20.658;2022-10-16T04:08:05;332.80;2329.60
56436;DHT22;42335;44.872;20.658;2022-10-16T04:10:30;332.80;2329.60
56436;DHT22;42335;44.872;20.658;2022-10-16T04:12:56;308.10;2304.00
56436;DHT22;42335;44.872;20.658;2022-10-16T04:15:25;308.10;2304.00
56436;DHT22;42335;44.872;20.658;2022-10-16T04:17:51;308.10;2304.00
56436;DHT22;42335;44.872;20.658;2022-10-16T04:20:17;308.10;2304.00
56436;DHT22;42335;44.872;20.658;2022-10-16T04:22:44;308.10;2304.00
56436;DHT22;42335;44.872;20.658;2022-10-16T04:25:10;308.10;2304.00
56436;DHT22;42335;44.872;20.658;2022-10-16T04:27:37;308.10;2304.00
56436;DHT22;42335;44.872;20.658;2022-10-16T04:30:03;308.00;2304.00
56436;DHT22;42335;44.872;20.658;2022-10-16T04:32:29;308.10;2304.00
56436;DHT22;42335;44.872;20.658;2022-10-16T04:34:55;308.00;2304.00
56436;DHT22;42335;44.872;20.658;2022-10-16T04:37:25;307.80;2304.00
56436;DHT22;42335;44.872;20.658;2022-10-16T04:39:51;307.90;2304.00
56436;DHT22;42335;44.872;20.658;2022-10-16T04:42:17;307.80;2304.00
56436;DHT22;42335;44.872;20.658;2022-10-16T04:44:43;307.80;2304.00
56436;DHT22;42335;44.872;20.658;2022-10-16T04:47:08;307.70;2304.00
56436;DHT22;42335;44.872;20.658;2022-10-16T04:49:34;307.70;2304.00
56436;DHT22;42335;44.872;20.658;2022-10-16T04:52:00;307.60;2304.00
56436;DHT22;42335;44.872;20.658;2022-10-16T04:54:25;307.60;2304.00
56436;DHT22;42335;44.872;20.658;2022-10-16T04:56:51;307.60;2304.00
56436;DHT22;42335;44.872;20.658;2022-10-16T04:59:19;307.60;2304.00
56436;DHT22;42335;44.872;20.658;2022-10-16T05:01:45;307.60;2304.00
56436;DHT22;42335;44.872;20.658;2022-10-16T05:04:11;307.60;2304.00
56436;DHT22;42335;44.872;20.658;2022-10-16T05:06:37;307.60;2304.00
56436;DHT22;42335;44.872;20.658;2022-10-16T05:09:04;307.60;2304.00
56436;DHT22;42335;44.872;20.658;2022-10-16T05:11:30;307.60;2304.00
56436;DHT22;42335;44.872;20.658;2022-10-16T05:13:56;307.60;2304.00
56436;DHT22;42335;44.872;20.658;2022-10-16T05:16:22;307.60;2304.00
56436;DHT22;42335;44.872;20.658;2022-10-16T05:18:47;307.70;2304.00
56436;DHT22;42335;44.872;20.658;2022-10-16T05:21:13;307.70;2304.00
56436;DHT22;42335;44.872;20.658;2022-10-16T05:23:39;307.80;2304.00
56436;DHT22;42335;44.872;20.658;2022-10-16T05:26:05;307.80;2304.00
56436;DHT22;42335;44.872;20.658;2022-10-16T05:28:31;307.80;2304.00
56436;DHT22;42335;44.872;20.658;2022-10-16T05:30:57;307.90;2304.00
56436;DHT22;42335;44.872;20.658;2022-10-16T05:33:24;308.00;2304.00
56436;DHT22;42335;44.872;20.658;2022-10-16T05:35:51;308.00;2304.00
56436;DHT22;42335;44.872;20.658;2022-10-16T05:38:17;308.10;2304.00
56436;DHT22;42335;44.872;20.658;2022-10-16T05:40:44;332.80;2329.60
56436;DHT22;42335;44.872;20.658;2022-10-16T05:43:15;332.80;2329.60
56436;DHT22;42335;44.872;20.658;2022-10-16T05:45:41;332.90;2329.60
56436;DHT22;42335;44.872;20.658;2022-10-16T05:48:07;332.90;2329.60
56436;DHT22;42335;44.872;20.658;2022-10-16T05:50:32;333.00;2329.60
56436;DHT22;42335;44.872;20.658;2022-10-16T05:52:58;333.10;2329.60
56436;DHT22;42335;44.872;20.658;2022-10-16T05:55:24;333.20;2329.60
56436;DHT22;42335;44.872;20.658;2022-10-16T05:57:49;333.20;2329.60
56436;DHT22;42335;44.872;20.658;2022-10-16T06:00:15;333.30;2329.60
56436;DHT22;42335;44.872;20.658;2022-10-16T06:02:41;333.40;2329.60
56436;DHT22;42335;44.872;20.658;2022-10-16T06:05:07;333.40;2329.60
56436;DHT22;42335;44.872;20.658;2022-10-16T06:07:36;333.50;2329.60
56436;DHT22;42335;44.872;20.658;2022-10-16T06:10:03;333.60;2329.60
56436;DHT22;42335;44.872;20.658;2022-10-16T06:12:29;333.70;2329.60
56436;DHT22;42335;44.872;20.658;2022-10-16T06:14:55;358.40;2329.60
56436;DHT22;42335;44.872;20.658;2022-10-16T06:17:20;358.60;2329.60
56436;DHT22;42335;44.872;20.658;2022-10-16T06:19:46;358.80;2329.60
56436;DHT22;42335;44.872;20.658;2022-10-16T06:22:12;359.10;2329.60
56436;DHT22;42335;44.872;20.658;2022-10-16T06:24:38;384.00;2329.60
56436;DHT22;42335;44.872;20.658;2022-10-16T06:27:04;384.40;2329.60
56436;DHT22;42335;44.872;20.658;2022-10-16T06:36:48;435.80;2355.20
56436;DHT22;42335;44.872;20.658;2022-10-16T06:39:13;435.80;2355.20
56436;DHT22;42335;44.872;20.658;2022-10-16T06:51:26;563.30;2073.60
56436;DHT22;42335;44.872;20.658;2022-10-16T06:53:54;563.60;2048.00
56436;DHT22;42335;44.872;20.658;2022-10-16T06:56:23;614.80;1715.20
56436;DHT22;42335;44.872;20.658;2022-10-16T06:58:50;666.30;1459.20
56436;DHT22;42335;44.872;20.658;2022-10-16T07:01:18;692.10;1356.80
56436;DHT22;42335;44.872;20.658;2022-10-16T07:08:39;819.60;1049.60
56436;DHT22;42335;44.872;20.658;2022-10-16T07:16:13;820.10;998.40
56436;DHT22;42335;44.872;20.658;2022-10-16T07:23:36;896.80;870.40
56436;DHT22;42335;44.872;20.658;2022-10-16T07:26:02;973.10;793.60
56436;DHT22;42335;44.872;20.658;2022-10-16T07:28:28;998.80;768.00
56436;DHT22;42335;44.872;20.658;2022-10-16T07:30:54;999.00;742.40
56436;DHT22;42335;44.872;20.658;2022-10-16T07:33:21;999.30;742.40
56436;DHT22;42335;44.872;20.658;2022-10-16T07:35:51;1049.60;716.80
56436;DHT22;42335;44.872;20.658;2022-10-16T07:38:17;1050.50;665.60
56436;DHT22;42335;44.872;20.658;2022-10-16T07:40:46;1100.80;665.60
56436;DHT22;42335;44.872;20.658;2022-10-16T07:43:12;1101.00;640.00
56436;DHT22;42335;44.872;20.658;2022-10-16T07:45:47;1101.30;614.40
56436;DHT22;42335;44.872;20.658;2022-10-16T07:48:13;1101.40;614.40
56436;DHT22;42335;44.872;20.658;2022-10-16T07:50:38;1101.50;588.80
56436;DHT22;42335;44.872;20.658;2022-10-16T07:53:04;1126.40;614.40
56436;DHT22;42335;44.872;20.658;2022-10-16T07:55:29;1126.60;614.40
56436;DHT22;42335;44.872;20.658;2022-10-16T07:57:55;1126.40;614.40
56436;DHT22;42335;44.872;20.658;2022-10-16T08:00:21;1101.50;588.80
56436;DHT22;42335;44.872;20.658;2022-10-16T08:02:46;1126.50;614.40
56436;DHT22;42335;44.872;20.658;2022-10-16T08:05:12;1126.50;614.40
56436;DHT22;42335;44.872;20.658;2022-10-16T08:07:38;1101.50;588.80
56436;DHT22;42335;44.872;20.658;2022-10-16T08:10:04;1101.40;588.80
56436;DHT22;42335;44.872;20.658;2022-10-16T08:12:30;1101.50;563.20
56436;DHT22;42335;44.872;20.658;2022-10-16T08:14:55;1101.30;588.80
56436;DHT22;42335;44.872;20.658;2022-10-16T08:17:21;1126.60;563.20
56436;DHT22;42335;44.872;20.658;2022-10-16T08:19:47;1126.40;588.80
56436;DHT22;42335;44.872;20.658;2022-10-16T08:22:16;1126.90;563.20
56436;DHT22;42335;44.872;20.658;2022-10-16T08:24:42;1126.80;588.80
56436;DHT22;42335;44.872;20.658;2022-10-16T08:27:07;1101.60;563.20
56436;DHT22;42335;44.872;20.658;2022-10-16T08:29:34;1101.30;563.20
56436;DHT22;42335;44.872;20.658;2022-10-16T08:32:00;1101.60;563.20
56436;DHT22;42335;44.872;20.658;2022-10-16T08:34:25;1075.40;588.80
56436;DHT22;42335;44.872;20.658;2022-10-16T08:36:53;1050.10;614.40
56436;DHT22;42335;44.872;20.658;2022-10-16T08:39:20;1049.80;640.00
56436;DHT22;42335;44.872;20.658;2022-10-16T08:50:27;948.10;691.20
56436;DHT22;42335;44.872;20.658;2022-10-16T08:52:54;947.30;716.80
56436;DHT22;42335;44.872;20.658;2022-10-16T08:55:43;921.90;768.00
56436;DHT22;42335;44.872;20.658;2022-10-16T10:16:42;870.40;844.80
56436;DHT22;42335;44.872;20.658;2022-10-16T10:19:23;845.70;844.80
56436;DHT22;42335;44.872;20.658;2022-10-16T10:21:50;870.60;870.40
56436;DHT22;42335;44.872;20.658;2022-10-16T10:24:18;870.60;870.40
56436;DHT22;42335;44.872;20.658;2022-10-16T10:35:26;871.00;793.60
56436;DHT22;42335;44.872;20.658;2022-10-16T10:46:03;871.20;793.60
56436;DHT22;42335;44.872;20.658;2022-10-16T10:51:00;871.30;793.60
56436;DHT22;42335;44.872;20.658;2022-10-16T11:01:59;896.40;768.00
56436;DHT22;42335;44.872;20.658;2022-10-16T11:07:09;896.60;768.00
56436;DHT22;42335;44.872;20.658;2022-10-16T11:09:44;896.00;793.60
56436;DHT22;42335;44.872;20.658;2022-10-16T11:14:47;896.30;768.00
56436;DHT22;42335;44.872;20.658;2022-10-16T11:17:30;896.70;793.60
56436;DHT22;42335;44.872;20.658;2022-10-16T11:22:51;871.30;870.40
56436;DHT22;42335;44.872;20.658;2022-10-16T11:25:39;871.20;819.20
56436;DHT22;42335;44.872;20.658;2022-10-16T11:28:13;870.90;844.80
56436;DHT22;42335;44.872;20.658;2022-10-16T11:30:47;871.30;819.20
56436;DHT22;42335;44.872;20.658;2022-10-16T11:44:51;1050.10;614.40
56436;DHT22;42335;44.872;20.658;2022-10-16T11:50:13;947.70;691.20
56436;DHT22;42335;44.872;20.658;2022-10-16T11:55:21;896.40;742.40
56436;DHT22;42335;44.872;20.658;2022-10-16T11:57:52;870.90;793.60
56436;DHT22;42335;44.872;20.658;2022-10-16T12:08:23;819.60;870.40
56436;DHT22;42335;44.872;20.658;2022-10-16T14:28:39;666.40;1126.40
56436;DHT22;42335;44.872;20.658;2022-10-16T14:33:49;666.00;1152.00
56436;DHT22;42335;44.872;20.658;2022-10-16T15:03:47;640.50;1152.00
56436;DHT22;42335;44.872;20.658;2022-10-16T15:06:14;640.30;1152.00
56436;DHT22;42335;44.872;20.658;2022-10-16T15:08:40;640.10;1177.60
56436;DHT22;42335;44.872;20.658;2022-10-16T15:11:12;615.20;1203.20
56436;DHT22;42335;44.872;20.658;2022-10-16T15:13:39;615.00;1203.20
56436;DHT22;42335;44.872;20.658;2022-10-16T15:23:23;589.70;1280.00
56436;DHT22;42335;44.872;20.658;2022-10-16T15:25:53;589.30;1280.00
56436;DHT22;42335;44.872;20.658;2022-10-16T15:28:20;589.00;1305.60
56436;DHT22;42335;44.872;20.658;2022-10-16T15:35:40;564.10;1356.80
56436;DHT22;42335;44.872;20.658;2022-10-16T15:38:07;563.80;1382.40
56436;DHT22;42335;44.872;20.658;2022-10-16T15:42:59;563.70;1382.40
56436;DHT22;42335;44.872;20.658;2022-10-16T15:45:25;563.40;1408.00
56436;DHT22;42335;44.872;20.658;2022-10-16T15:47:51;538.50;1382.40
56436;DHT22;42335;44.872;20.658;2022-10-16T15:57:37;538.20;1433.60
56436;DHT22;42335;44.872;20.658;2022-10-16T16:00:09;537.80;1459.20
56436;DHT22;42335;44.872;20.658;2022-10-16T16:02:36;512.90;1433.60
56436;DHT22;42335;44.872;20.658;2022-10-16T16:05:01;512.90;1459.20
56436;DHT22;42335;44.872;20.658;2022-10-16T16:17:14;512.80;1484.80
56436;DHT22;42335;44.872;20.658;2022-10-16T16:19:40;512.30;1510.40
56436;DHT22;42335;44.872;20.658;2022-10-16T16:22:06;512.20;1510.40
56436;DHT22;42335;44.872;20.658;2022-10-16T16:24:31;512.10;1510.40
56436;DHT22;42335;44.872;20.658;2022-10-16T16:26:57;487.30;1510.40
56436;DHT22;42335;44.872;20.658;2022-10-16T16:29:23;487.20;1536.00
56436;DHT22;42335;44.872;20.658;2022-10-16T16:31:48;487.10;1536.00
56436;DHT22;42335;44.872;20.658;2022-10-16T16:34:14;487.10;1536.00
56436;DHT22;42335;44.872;20.658;2022-10-16T16:36:40;487.00;1561.60
56436;DHT22;42335;44.872;20.658;2022-10-16T16:39:06;487.00;1561.60
56436;DHT22;42335;44.872;20.658;2022-10-16T16:41:33;486.90;1561.60
56436;DHT22;42335;44.872;20.658;2022-10-16T16:44:07;486.80;1561.60
56436;DHT22;42335;44.872;20.658;2022-10-16T16:46:34;486.80;1587.20
56436;DHT22;42335;44.872;20.658;2022-10-16T16:49:01;486.60;1587.20
56436;DHT22;42335;44.872;20.658;2022-10-16T16:51:27;486.50;1587.20
56436;DHT22;42335;44.872;20.658;2022-10-16T16:53:54;486.40;1587.20
56436;DHT22;42335;44.872;20.658;2022-10-16T16:56:21;486.40;1612.80
56436;DHT22;42335;44.872;20.658;2022-10-16T16:58:49;486.40;1612.80
56436;DHT22;42335;44.872;20.658;2022-10-16T17:01:15;486.40;1612.80
56436;DHT22;42335;44.872;20.658;2022-10-16T17:03:42;461.70;1612.80
56436;DHT22;42335;44.872;20.658;2022-10-16T17:06:13;486.50;1612.80
56436;DHT22;42335;44.872;20.658;2022-10-16T17:08:39;461.70;1612.80
56436;DHT22;42335;44.872;20.658;2022-10-16T17:11:11;461.50;1638.40
56436;DHT22;42335;44.872;20.658;2022-10-16T17:13:36;461.40;1638.40
56436;DHT22;42335;44.872;20.658;2022-10-16T17:16:04;461.40;1638.40
56436;DHT22;42335;44.872;20.658;2022-10-16T17:21:01;461.50;1638.40
56436;DHT22;42335;44.872;20.658;2022-10-16T17:23:27;461.30;1664.00
56436;DHT22;42335;44.872;20.658;2022-10-16T17:25:53;461.30;1664.00
56436;DHT22;42335;44.872;20.658;2022-10-16T17:28:19;461.20;1689.60
56436;DHT22;42335;44.872;20.658;2022-10-16T17:30:45;460.90;1689.60
56436;DHT22;42335;44.872;20.658;2022-10-16T17:33:12;461.00;1689.60
56436;DHT22;42335;44.872;20.658;2022-10-16T17:35:43;460.80;1715.20
56436;DHT22;42335;44.872;20.658;2022-10-16T17:38:10;436.10;1689.60
56436;DHT22;42335;44.872;20.658;2022-10-16T17:40:37;436.10;1689.60
56436;DHT22;42335;44.872;20.658;2022-10-16T17:43:02;436.10;1715.20
56436;DHT22;42335;44.872;20.658;2022-10-16T17:45:28;436.00;1689.60
56436;DHT22;42335;44.872;20.658;2022-10-16T17:47:54;435.90;1689.60
56436;DHT22;42335;44.872;20.658;2022-10-16T17:50:20;435.90;1715.20
56436;DHT22;42335;44.872;20.658;2022-10-16T17:52:46;435.80;1715.20
56436;DHT22;42335;44.872;20.658;2022-10-16T17:55:13;435.80;1715.20
56436;DHT22;42335;44.872;20.658;2022-10-16T17:57:38;435.80;1715.20
56436;DHT22;42335;44.872;20.658;2022-10-16T18:00:05;435.60;1740.80
56436;DHT22;42335;44.872;20.658;2022-10-16T18:02:31;435.60;1766.40
56436;DHT22;42335;44.872;20.658;2022-10-16T18:05:17;435.60;1766.40
56436;DHT22;42335;44.872;20.658;2022-10-16T18:07:59;435.50;1766.40
56436;DHT22;42335;44.872;20.658;2022-10-16T18:10:25;435.50;1766.40
56436;DHT22;42335;44.872;20.658;2022-10-16T18:12:51;435.40;1766.40
56436;DHT22;42335;44.872;20.658;2022-10-16T18:15:17;435.30;1766.40
56436;DHT22;42335;44.872;20.658;2022-10-16T18:17:42;435.30;1766.40
56436;DHT22;42335;44.872;20.658;2022-10-16T18:20:09;435.40;1792.00
56436;DHT22;42335;44.872;20.658;2022-10-16T18:22:35;435.30;1792.00
56436;DHT22;42335;44.872;20.658;2022-10-16T18:25:05;435.50;1792.00
56436;DHT22;42335;44.872;20.658;2022-10-16T18:27:31;435.20;1792.00
56436;DHT22;42335;44.872;20.658;2022-10-16T18:29:58;410.50;1817.60
56436;DHT22;42335;44.872;20.658;2022-10-16T18:32:25;410.50;1817.60
56436;DHT22;42335;44.872;20.658;2022-10-16T18:34:52;410.50;1817.60
56436;DHT22;42335;44.872;20.658;2022-10-16T18:37:20;435.20;1817.60
56436;DHT22;42335;44.872;20.658;2022-10-16T19:01:48;410.20;1868.80
56436;DHT22;42335;44.872;20.658;2022-10-16T19:04:24;410.00;1868.80
56436;DHT22;42335;44.872;20.658;2022-10-16T19:09:20;410.20;1868.80
56436;DHT22;42335;44.872;20.658;2022-10-16T19:11:47;409.90;1894.40
56436;DHT22;42335;44.872;20.658;2022-10-16T19:24:04;409.90;1894.40
56436;DHT22;42335;44.872;20.658;2022-10-16T19:26:31;409.70;1920.00
56436;DHT22;42335;44.872;20.658;2022-10-16T19:33:58;409.80;1920.00
56436;DHT22;42335;44.872;20.658;2022-10-16T19:36:29;409.70;1920.00
56436;DHT22;42335;44.872;20.658;2022-10-16T19:53:44;384.80;1945.60
56436;DHT22;42335;44.872;20.658;2022-10-16T19:56:15;384.70;1945.60
56436;DHT22;42335;44.872;20.658;2022-10-16T19:58:42;384.60;1971.20
56436;DHT22;42335;44.872;20.658;2022-10-16T20:01:08;384.30;1971.20
56436;DHT22;42335;44.872;20.658;2022-10-16T20:03:34;384.30;1971.20
56436;DHT22;42335;44.872;20.658;2022-10-16T20:06:00;384.20;1996.80
56436;DHT22;42335;44.872;20.658;2022-10-16T20:08:31;384.10;1996.80
56436;DHT22;42335;44.872;20.658;2022-10-16T20:10:57;384.10;1996.80
56436;DHT22;42335;44.872;20.658;2022-10-16T20:13:23;384.10;1996.80
56436;DHT22;42335;44.872;20.658;2022-10-16T20:15:49;384.00;2022.40
56436;DHT22;42335;44.872;20.658;2022-10-16T20:18:15;359.30;2022.40
56436;DHT22;42335;44.872;20.658;2022-10-16T20:20:43;359.30;2022.40
56436;DHT22;42335;44.872;20.658;2022-10-16T20:23:09;359.30;2022.40
56436;DHT22;42335;44.872;20.658;2022-10-16T20:25:36;359.30;2022.40
56436;DHT22;42335;44.872;20.658;2022-10-16T20:28:03;359.30;2048.00
56436;DHT22;42335;44.872;20.658;2022-10-16T20:30:33;359.30;2048.00
56436;DHT22;42335;44.872;20.658;2022-10-16T20:32:59;359.20;2048.00
56436;DHT22;42335;44.872;20.658;2022-10-16T20:35:25;359.20;2073.60
56436;DHT22;42335;44.872;20.658;2022-10-16T20:37:53;359.20;2073.60
56436;DHT22;42335;44.872;20.658;2022-10-16T20:40:19;359.20;2073.60
56436;DHT22;42335;44.872;20.658;2022-10-16T20:42:45;359.20;2073.60
56436;DHT22;42335;44.872;20.658;2022-10-16T20:45:10;359.20;2099.20
56436;DHT22;42335;44.872;20.658;2022-10-16T20:47:36;359.10;2099.20
56436;DHT22;42335;44.872;20.658;2022-10-16T20:50:02;359.10;2099.20
56436;DHT22;42335;44.872;20.658;2022-10-16T20:52:32;359.10;2124.80
56436;DHT22;42335;44.872;20.658;2022-10-16T20:54:57;359.20;2124.80
56436;DHT22;42335;44.872;20.658;2022-10-16T20:57:23;359.10;2124.80
56436;DHT22;42335;44.872;20.658;2022-10-16T20:59:49;384.00;2124.80
56436;DHT22;42335;44.872;20.658;2022-10-16T21:02:20;359.20;2124.80
56436;DHT22;42335;44.872;20.658;2022-10-16T21:04:48;359.10;2150.40
56436;DHT22;42335;44.872;20.658;2022-10-16T21:07:16;359.10;2150.40
56436;DHT22;42335;44.872;20.658;2022-10-16T21:09:44;359.10;2176.00
56436;DHT22;42335;44.872;20.658;2022-10-16T21:12:09;359.10;2176.00
56436;DHT22;42335;44.872;20.658;2022-10-16T21:14:35;359.10;2176.00
56436;DHT22;42335;44.872;20.658;2022-10-16T21:17:01;359.10;2201.60
56436;DHT22;42335;44.872;20.658;2022-10-16T21:19:30;359.10;2201.60
56436;DHT22;42335;44.872;20.658;2022-10-16T21:21:56;359.10;2201.60
56436;DHT22;42335;44.872;20.658;2022-10-16T21:24:22;359.10;2201.60
56436;DHT22;42335;44.872;20.658;2022-10-16T21:26:48;359.10;2201.60
56436;DHT22;42335;44.872;20.658;2022-10-16T21:29:14;359.10;2227.20
56436;DHT22;42335;44.872;20.658;2022-10-16T21:31:40;359.10;2227.20
56436;DHT22;42335;44.872;20.658;2022-10-16T21:34:06;359.00;2252.80
56436;DHT22;42335;44.872;20.658;2022-10-16T21:36:34;359.00;2252.80
56436;DHT22;42335;44.872;20.658;2022-10-16T21:39:08;359.00;2278.40
56436;DHT22;42335;44.872;20.658;2022-10-16T21:41:34;359.00;2278.40
56436;DHT22;42335;44.872;20.658;2022-10-16T21:44:00;359.00;2278.40
56436;DHT22;42335;44.872;20.658;2022-10-16T21:46:28;359.00;2278.40
56436;DHT22;42335;44.872;20.658;2022-10-16T21:48:55;359.00;2304.00
56436;DHT22;42335;44.872;20.658;2022-10-16T21:51:32;358.90;2329.60
56436;DHT22;42335;44.872;20.658;2022-10-16T21:53:59;358.90;2329.60
56436;DHT22;42335;44.872;20.658;2022-10-16T21:56:25;358.90;2329.60
56436;DHT22;42335;44.872;20.658;2022-10-16T21:58:51;358.90;2329.60
56436;DHT22;42335;44.872;20.658;2022-10-16T22:01:19;358.80;2329.60
56436;DHT22;42335;44.872;20.658;2022-10-16T22:15:59;358.90;2329.60
56436;DHT22;42335;44.872;20.658;2022-10-16T22:18:25;358.50;2329.60
56436;DHT22;42335;44.872;20.658;2022-10-16T22:20:51;358.40;2329.60
56436;DHT22;42335;44.872;20.658;2022-10-16T22:23:17;333.70;2329.60
56436;DHT22;42335;44.872;20.658;2022-10-16T22:25:43;333.70;2329.60
56436;DHT22;42335;44.872;20.658;2022-10-16T22:28:08;333.60;2329.60